Time;durP1;ratioP1;P1;durP2;ratioP2;P2;SDS_P1;SDS_P2;PMS_P1;PMS_P2;Temp;Humidity;BMP_temperature;BMP_pressure;BME280_temperature;BME280_humidity;BME280_pressure;Samples;Min_cycle;Max_cycle;Signal;HPM_P1;HPM_P2
2023/03/29 00:01:35;;;;;;;4.10;2.78;;;5.60;99.90;;;;;;5093120;28;20098;-78
2023/03/29 00:04:01;;;;;;;4.63;2.78;;;6.20;99.90;;;;;;5093788;28;20036;-78
2023/03/29 00:06:31;;;;;;;6.40;3.10;;;5.60;99.90;;;;;;5092685;28;20044;-78
2023/03/29 00:08:58;;;;;;;7.30;2.85;;;5.70;99.90;;;;;;5093698;28;20051;-78
2023/03/29 00:11:26;;;;;;;3.85;2.70;;;5.60;99.90;;;;;;5093312;28;20048;-78
2023/03/29 00:13:52;;;;;;;5.10;3.00;;;5.60;99.90;;;;;;5093617;28;20120;-77
2023/03/29 00:16:17;;;;;;;5.78;3.20;;;5.70;99.90;;;;;;5093840;28;20090;-77
2023/03/29 00:18:44;;;;;;;6.57;3.10;;;5.60;99.90;;;;;;5093545;28;20052;-78
2023/03/29 00:21:10;;;;;;;6.68;2.83;;;5.60;99.90;;;;;;5093609;28;20044;-78
2023/03/29 00:23:35;;;;;;;5.57;3.00;;;5.50;99.90;;;;;;5093549;28;20044;-77
2023/03/29 00:26:02;;;;;;;6.40;3.10;;;5.50;99.90;;;;;;5092123;28;20051;-78
2023/03/29 00:28:27;;;;;;;5.95;3.17;;;5.50;99.90;;;;;;5093478;28;20050;-77
2023/03/29 00:30:53;;;;;;;5.10;3.22;;;5.50;99.90;;;;;;5092498;28;20131;-77
2023/03/29 00:33:19;;;;;;;6.63;3.35;;;5.70;99.90;;;;;;5093509;28;20551;-77
2023/03/29 00:35:47;;;;;;;5.35;3.47;;;5.50;99.90;;;;;;5093287;28;20050;-78
2023/03/29 00:38:13;;;;;;;5.32;3.30;;;5.50;99.90;;;;;;5093344;28;20063;-78
2023/03/29 00:40:42;;;;;;;6.25;3.50;;;5.50;99.90;;;;;;5093321;28;20040;-78
2023/03/29 00:43:10;;;;;;;7.60;3.53;;;5.40;99.90;;;;;;5092214;28;20075;-78
2023/03/29 00:45:36;;;;;;;7.25;3.90;;;5.40;99.90;;;;;;5093279;28;20048;-78
2023/03/29 00:48:07;;;;;;;6.07;3.13;;;5.40;99.90;;;;;;5093049;28;20468;-78
2023/03/29 00:50:38;;;;;;;5.35;3.35;;;6.20;99.90;;;;;;5093157;28;20040;-77
2023/03/29 00:53:26;;;;;;;5.20;3.30;;;5.40;99.90;;;;;;5092888;28;20055;-77
2023/03/29 00:56:28;;;;;;;6.88;3.38;;;5.40;99.90;;;;;;5093442;28;20450;-78
2023/03/29 00:59:03;;;;;;;7.60;4.03;;;5.40;99.90;;;;;;5076284;28;20527;-77
2023/03/29 01:01:45;;;;;;;5.82;3.60;;;6.10;99.90;;;;;;5093304;28;20051;-78
2023/03/29 01:04:17;;;;;;;9.25;3.60;;;5.40;99.90;;;;;;5093793;28;20044;-77
2023/03/29 01:06:52;;;;;;;6.53;3.75;;;5.40;99.90;;;;;;5093100;28;20048;-78
2023/03/29 01:09:19;;;;;;;7.35;3.72;;;5.40;99.90;;;;;;5092209;28;20044;-78
2023/03/29 01:11:52;;;;;;;7.78;3.08;;;5.40;99.90;;;;;;5094390;28;20089;-76
2023/03/29 01:14:19;;;;;;;8.98;3.30;;;5.50;99.90;;;;;;5095714;28;20048;-79
2023/03/29 01:16:45;;;;;;;5.47;3.58;;;5.40;99.90;;;;;;5096890;28;20087;-78
2023/03/29 01:19:17;;;;;;;8.05;3.70;;;5.40;99.90;;;;;;5096788;28;20091;-77
2023/03/29 01:21:50;;;;;;;7.90;3.47;;;5.40;99.90;;;;;;5096692;28;20051;-78
2023/03/29 01:24:31;;;;;;;7.03;3.40;;;5.40;99.90;;;;;;5096731;28;20059;-77
2023/03/29 01:27:06;;;;;;;6.15;3.72;;;5.40;99.90;;;;;;5097055;28;20136;-78
2023/03/29 01:29:53;;;;;;;9.77;3.92;;;5.40;99.90;;;;;;5096419;28;20122;-77
2023/03/29 01:32:35;;;;;;;5.25;3.35;;;5.50;99.90;;;;;;5096666;28;20131;-78
2023/03/29 01:35:13;;;;;;;5.22;3.80;;;5.90;99.90;;;;;;5096265;28;20488;-78
2023/03/29 01:37:52;;;;;;;5.38;3.38;;;5.40;99.90;;;;;;5096828;28;20048;-77
2023/03/29 01:40:17;;;;;;;9.63;3.92;;;5.50;99.90;;;;;;5096408;28;20051;-78
2023/03/29 01:43:04;;;;;;;9.00;4.25;;;5.40;99.90;;;;;;5096363;28;20380;-77
2023/03/29 01:45:46;;;;;;;5.30;4.00;;;5.50;99.90;;;;;;5096297;28;20048;-78
2023/03/29 01:48:27;;;;;;;10.65;4.20;;;5.50;99.90;;;;;;5096462;28;20366;-77
2023/03/29 01:50:56;;;;;;;8.50;5.47;;;5.50;99.90;;;;;;5096141;28;20055;-78
2023/03/29 01:53:50;;;;;;;8.55;5.00;;;5.40;99.90;;;;;;5095954;28;20503;-77
2023/03/29 01:56:21;;;;;;;9.63;4.85;;;5.40;99.90;;;;;;5096739;28;20040;-77
2023/03/29 01:58:55;;;;;;;8.35;5.07;;;5.40;99.90;;;;;;5095857;28;20083;-76
2023/03/29 02:01:25;;;;;;;8.10;5.40;;;5.40;99.90;;;;;;5096188;28;20434;-77
2023/03/29 02:03:55;;;;;;;10.32;5.43;;;5.40;99.90;;;;;;5095967;28;20051;-77
2023/03/29 02:06:25;;;;;;;10.10;6.03;;;5.40;99.90;;;;;;5095748;28;20480;-78
2023/03/29 02:08:52;;;;;;;9.88;5.72;;;5.40;99.90;;;;;;5095750;28;20040;-78
2023/03/29 02:11:18;;;;;;;;;;;5.60;99.90;;;;;;5096276;28;20143;-78
2023/03/29 02:13:44;;;;;;;11.85;6.80;;;5.40;99.90;;;;;;5095722;28;20422;-78
2023/03/29 02:16:11;;;;;;;11.90;6.28;;;5.30;99.90;;;;;;5095374;28;20086;-79
2023/03/29 02:18:39;;;;;;;11.93;6.40;;;5.40;99.90;;;;;;5095614;28;20047;-77
2023/03/29 02:21:05;;;;;;;13.10;7.32;;;5.40;99.90;;;;;;5095533;28;20055;-78
2023/03/29 02:23:39;;;;;;;11.05;7.28;;;5.30;99.90;;;;;;5094766;28;20044;-79
2023/03/29 02:26:07;;;;;;;13.10;7.38;;;5.40;99.90;;;;;;5095630;28;20101;-78
2023/03/29 02:28:34;;;;;;;13.95;8.27;;;5.40;99.90;;;;;;5095515;28;20493;-77
2023/03/29 02:31:18;;;;;;;14.00;8.15;;;5.40;99.90;;;;;;5095385;28;20400;-78
2023/03/29 02:33:59;;;;;;;12.90;7.18;;;5.40;99.90;;;;;;5095551;28;20060;-78
2023/03/29 02:36:34;;;;;;;11.98;7.32;;;5.30;99.90;;;;;;5095459;28;20131;-77
2023/03/29 02:39:04;;;;;;;11.65;7.85;;;5.80;99.90;;;;;;5095177;28;20051;-78
2023/03/29 02:41:31;;;;;;;12.55;7.57;;;5.40;99.90;;;;;;5095229;28;20131;-77
2023/03/29 02:43:59;;;;;;;14.60;8.45;;;5.40;99.90;;;;;;5095088;28;20119;-77
2023/03/29 02:46:25;;;;;;;11.27;8.07;;;5.80;99.90;;;;;;5095155;28;20051;-77
2023/03/29 02:48:53;;;;;;;13.60;7.73;;;5.30;99.90;;;;;;5094728;28;20063;-78
2023/03/29 02:51:23;;;;;;;12.02;7.85;;;5.50;99.90;;;;;;5095013;28;20339;-79
2023/03/29 02:53:56;;;;;;;12.57;7.75;;;5.30;99.90;;;;;;5094847;28;20082;-77
2023/03/29 02:56:22;;;;;;;18.85;8.55;;;5.30;99.90;;;;;;5094846;28;20040;-78
2023/03/29 02:58:48;;;;;;;14.93;8.00;;;5.40;99.90;;;;;;5094878;28;20048;-78
2023/03/29 03:01:15;;;;;;;14.57;7.90;;;5.30;99.90;;;;;;5095113;28;20225;-78
2023/03/29 03:03:41;;;;;;;16.42;8.18;;;5.40;99.90;;;;;;5095058;28;20061;-77
2023/03/29 03:06:07;;;;;;;12.05;7.90;;;5.40;99.90;;;;;;5094953;28;20047;-79
2023/03/29 03:08:32;;;;;;;11.57;7.82;;;5.40;99.90;;;;;;5094676;28;20044;-77
2023/03/29 03:10:58;;;;;;;12.80;8.13;;;5.40;99.90;;;;;;5094477;28;20071;-76
2023/03/29 03:13:24;;;;;;;13.90;8.10;;;5.40;99.90;;;;;;5094631;28;20087;-77
2023/03/29 03:15:50;;;;;;;13.93;7.88;;;5.40;99.90;;;;;;5076485;28;20066;-78
2023/03/29 03:18:15;;;;;;;14.27;7.63;;;5.40;99.90;;;;;;5094595;28;20048;-78
2023/03/29 03:20:45;;;;;;;15.35;8.35;;;5.40;99.90;;;;;;5094682;28;20036;-78
2023/03/29 03:23:11;;;;;;;14.32;7.88;;;5.40;99.90;;;;;;5094685;28;20043;-79
2023/03/29 03:25:37;;;;;;;13.82;8.10;;;5.40;99.90;;;;;;5093211;28;20126;-77
2023/03/29 03:28:03;;;;;;;11.88;7.30;;;6.00;99.90;;;;;;5094674;28;20048;-78
2023/03/29 03:30:29;;;;;;;14.50;7.93;;;5.50;99.90;;;;;;5093503;28;20050;-77
2023/03/29 03:32:55;;;;;;;12.48;7.85;;;5.50;99.90;;;;;;5094228;28;20036;-77
2023/03/29 03:35:21;;;;;;;12.70;6.90;;;5.50;99.90;;;;;;5094100;28;20043;-76
2023/03/29 03:37:47;;;;;;;12.60;7.05;;;5.50;99.90;;;;;;5094294;28;20122;-78
2023/03/29 03:40:12;;;;;;;16.13;7.63;;;5.50;99.90;;;;;;5092949;28;20086;-77
2023/03/29 03:42:39;;;;;;;12.65;7.70;;;5.50;99.90;;;;;;5093990;28;20059;-78
2023/03/29 03:45:07;;;;;;;10.98;7.93;;;5.50;99.90;;;;;;5094351;28;20083;-77
2023/03/29 03:47:33;;;;;;;16.58;8.40;;;5.50;99.90;;;;;;5094020;28;20036;-77
2023/03/29 03:49:59;;;;;;;13.15;7.85;;;5.50;99.90;;;;;;5093967;28;20075;-78
2023/03/29 03:52:25;;;;;;;14.05;7.95;;;5.50;99.90;;;;;;5092755;28;20503;-78
2023/03/29 03:54:50;;;;;;;13.77;7.80;;;5.50;99.90;;;;;;5093964;28;20044;-77
2023/03/29 03:57:16;;;;;;;10.05;7.50;;;5.60;99.90;;;;;;5094155;28;20048;-77
2023/03/29 03:59:41;;;;;;;12.38;7.63;;;5.50;99.90;;;;;;5093720;28;20051;-76
2023/03/29 04:02:07;;;;;;;13.90;7.75;;;5.60;99.90;;;;;;5093662;28;20098;-77
2023/03/29 04:04:33;;;;;;;14.65;7.85;;;5.50;99.90;;;;;;5093379;28;20105;-77
2023/03/29 04:07:02;;;;;;;13.70;7.30;;;5.60;99.90;;;;;;5093819;28;20123;-77
2023/03/29 04:09:30;;;;;;;11.15;7.68;;;5.60;99.90;;;;;;5076056;28;20057;-79
2023/03/29 04:11:56;;;;;;;17.67;8.02;;;5.90;99.90;;;;;;5093594;28;20052;-77
2023/03/29 04:14:22;;;;;;;14.30;8.57;;;5.60;99.90;;;;;;5092686;28;20105;-77
2023/03/29 04:16:47;;;;;;;11.93;7.72;;;5.60;99.90;;;;;;5093694;28;20472;-77
2023/03/29 04:19:13;;;;;;;15.65;8.05;;;5.60;99.90;;;;;;5093698;28;20480;-78
2023/03/29 04:21:39;;;;;;;11.85;7.80;;;5.60;99.90;;;;;;5093720;28;20055;-78
2023/03/29 04:24:05;;;;;;;14.23;7.45;;;5.60;99.90;;;;;;5093481;28;20044;-78
2023/03/29 04:26:31;;;;;;;12.85;7.20;;;5.60;99.90;;;;;;5094015;28;20115;-79
2023/03/29 04:28:56;;;;;;;15.25;8.52;;;5.60;99.90;;;;;;5093448;28;20557;-78
2023/03/29 04:31:22;;;;;;;11.82;7.63;;;5.60;99.90;;;;;;5093536;28;20051;-78
2023/03/29 04:33:47;;;;;;;13.10;7.78;;;5.60;99.90;;;;;;5092294;28;20384;-78
2023/03/29 04:36:14;;;;;;;12.90;7.63;;;5.60;99.90;;;;;;5093350;28;20199;-78
2023/03/29 04:38:40;;;;;;;11.07;7.07;;;5.60;99.90;;;;;;5093140;28;20495;-77
2023/03/29 04:41:08;;;;;;;11.10;7.45;;;5.60;99.90;;;;;;5092409;28;20128;-77
2023/03/29 04:43:34;;;;;;;12.82;8.05;;;5.90;99.90;;;;;;5093295;28;20097;-79
2023/03/29 04:46:00;;;;;;;12.27;7.70;;;5.60;99.90;;;;;;5093670;28;20044;-76
2023/03/29 04:48:27;;;;;;;13.13;7.90;;;6.30;99.90;;;;;;5097311;28;20318;-76
2023/03/29 04:50:53;;;;;;;13.63;8.32;;;5.60;99.90;;;;;;5097486;28;20048;-78
2023/03/29 04:53:19;;;;;;;12.75;7.97;;;5.70;99.90;;;;;;5097169;28;20117;-78
2023/03/29 04:55:46;;;;;;;21.17;8.25;;;5.70;99.90;;;;;;5096077;28;20040;-78
2023/03/29 04:58:11;;;;;;;14.60;7.90;;;5.70;99.90;;;;;;5097320;28;20047;-77
2023/03/29 05:00:37;;;;;;;12.02;7.70;;;5.70;99.90;;;;;;5097280;28;20044;-79
2023/03/29 05:03:03;;;;;;;11.98;8.00;;;5.70;99.90;;;;;;5097126;28;20101;-77
2023/03/29 05:05:30;;;;;;;13.82;8.15;;;5.70;99.90;;;;;;5097040;28;20089;-78
2023/03/29 05:07:55;;;;;;;14.30;7.80;;;5.90;99.90;;;;;;5097092;28;20047;-77
2023/03/29 05:10:22;;;;;;;15.13;8.40;;;6.40;99.90;;;;;;5097134;28;20040;-77
2023/03/29 05:12:52;;;;;;;14.27;8.48;;;5.70;99.90;;;;;;5096717;28;20072;-77
2023/03/29 05:15:19;;;;;;;11.45;8.35;;;5.70;99.90;;;;;;5097262;28;20047;-80
2023/03/29 05:17:45;;;;;;;17.48;8.63;;;5.60;99.90;;;;;;5079087;28;20048;-77
2023/03/29 05:20:12;;;;;;;15.57;7.85;;;5.70;99.90;;;;;;5097060;28;20038;-78
2023/03/29 05:22:39;;;;;;;17.30;8.27;;;5.60;99.90;;;;;;5096615;28;20088;-80
2023/03/29 05:25:05;;;;;;;;;;;5.60;99.90;;;;;;5096815;28;20548;-80
2023/03/29 05:27:30;;;;;;;16.85;8.27;;;5.70;99.90;;;;;;5095733;28;19970;-80
2023/03/29 05:29:56;;;;;;;13.88;8.55;;;5.60;99.90;;;;;;5095550;28;20040;-80
2023/03/29 05:32:22;;;;;;;12.48;8.80;;;5.60;99.90;;;;;;5096655;28;20044;-81
2023/03/29 05:34:47;;;;;;;13.57;9.00;;;5.60;99.90;;;;;;5095524;28;20552;-80
2023/03/29 05:37:13;;;;;;;13.23;8.95;;;5.60;99.90;;;;;;5096238;28;20161;-80
2023/03/29 05:39:39;;;;;;;17.83;9.23;;;5.60;99.90;;;;;;5096336;28;20485;-80
2023/03/29 05:42:05;;;;;;;18.13;9.35;;;5.60;99.90;;;;;;5096438;28;20050;-81
2023/03/29 05:44:30;;;;;;;15.48;9.23;;;5.60;99.90;;;;;;5096383;28;20080;-79
2023/03/29 05:46:56;;;;;;;19.25;9.20;;;5.50;99.90;;;;;;5096431;28;20044;-79
2023/03/29 05:49:22;;;;;;;16.73;9.45;;;5.50;99.90;;;;;;5096616;28;20052;-80
2023/03/29 05:51:48;;;;;;;17.77;9.33;;;5.50;99.90;;;;;;5096293;28;20062;-80
2023/03/29 05:54:14;;;;;;;14.77;9.77;;;5.50;99.90;;;;;;5095723;28;20282;-78
2023/03/29 05:56:40;;;;;;;20.88;10.15;;;5.50;99.90;;;;;;5096048;28;20036;-82
2023/03/29 05:59:07;;;;;;;19.10;9.95;;;5.50;99.90;;;;;;5093700;28;20043;-81
2023/03/29 06:01:33;;;;;;;15.93;9.18;;;5.50;99.90;;;;;;5096385;28;20051;-79
2023/03/29 06:04:00;;;;;;;17.30;9.98;;;5.50;99.90;;;;;;5094830;28;20482;-79
2023/03/29 06:06:26;;;;;;;21.05;12.95;;;5.50;99.90;;;;;;5094738;28;20042;-80
2023/03/29 06:08:51;;;;;;;17.05;9.80;;;5.50;99.90;;;;;;5095598;28;20407;-80
2023/03/29 06:11:17;;;;;;;19.60;10.45;;;5.50;99.90;;;;;;5096340;28;20047;-82
2023/03/29 06:13:42;;;;;;;17.88;10.68;;;6.10;99.90;;;;;;5094835;28;20044;-80
2023/03/29 06:16:09;;;;;;;15.65;9.35;;;5.50;99.90;;;;;;5096493;28;20040;-81
2023/03/29 06:18:35;;;;;;;20.92;10.80;;;5.50;99.90;;;;;;5097498;28;20473;-82
2023/03/29 06:21:02;;;;;;;17.87;9.57;;;5.50;99.90;;;;;;5095813;28;20127;-82
2023/03/29 06:23:29;;;;;;;;;;;6.50;99.90;;;;;;5095855;28;20036;-79
2023/03/29 06:25:55;;;;;;;18.88;10.50;;;5.60;99.90;;;;;;5093509;28;19924;-79
2023/03/29 06:28:21;;;;;;;24.42;10.82;;;5.60;99.90;;;;;;5093444;28;20033;-77
2023/03/29 06:30:48;;;;;;;19.37;10.10;;;5.70;99.90;;;;;;5094306;28;20088;-80
2023/03/29 06:33:15;;;;;;;18.15;10.57;;;5.60;99.90;;;;;;5093718;28;20040;-77
2023/03/29 06:35:44;;;;;;;15.70;10.45;;;5.70;99.90;;;;;;5094641;28;20048;-79
2023/03/29 06:38:10;;;;;;;18.10;10.23;;;5.70;99.90;;;;;;5094912;28;20044;-78
2023/03/29 06:40:39;;;;;;;18.38;10.68;;;5.70;99.90;;;;;;5094576;28;20055;-78
2023/03/29 06:43:05;;;;;;;27.60;11.00;;;5.70;99.90;;;;;;5095224;28;20155;-80
2023/03/29 06:45:34;;;;;;;14.10;9.40;;;5.70;99.90;;;;;;5095439;28;20119;-77
2023/03/29 06:48:01;;;;;;;18.70;9.90;;;5.70;99.90;;;;;;5095085;28;20082;-79
2023/03/29 06:50:27;;;;;;;15.77;10.35;;;5.70;99.90;;;;;;5095049;28;20048;-77
2023/03/29 06:52:53;;;;;;;14.48;9.55;;;5.80;99.90;;;;;;5093774;28;20085;-78
2023/03/29 06:55:20;;;;;;;17.17;9.85;;;5.90;99.90;;;;;;5094945;28;20044;-79
2023/03/29 06:57:46;;;;;;;;;;;5.90;99.90;;;;;;5094255;28;20079;-78
2023/03/29 07:00:26;;;;;;;13.55;8.85;;;5.80;99.90;;;;;;5094994;28;19924;-78
2023/03/29 07:02:53;;;;;;;19.45;9.82;;;5.90;99.90;;;;;;5095094;28;20135;-79
2023/03/29 07:05:20;;;;;;;16.30;8.73;;;5.90;99.90;;;;;;5094717;28;20059;-79
2023/03/29 07:07:53;;;;;;;12.32;8.20;;;6.00;99.90;;;;;;5094038;28;20422;-78
2023/03/29 07:10:31;;;;;;;20.15;8.90;;;6.00;99.90;;;;;;5093612;28;20084;-80
2023/03/29 07:12:58;;;;;;;13.65;8.98;;;6.00;99.90;;;;;;5094880;28;20127;-77
2023/03/29 07:15:25;;;;;;;13.82;8.27;;;6.10;99.90;;;;;;5094614;28;20510;-80
2023/03/29 07:17:50;;;;;;;14.35;7.43;;;6.20;99.90;;;;;;5094388;28;20127;-79
2023/03/29 07:20:16;;;;;;;13.38;8.00;;;6.20;99.90;;;;;;5094491;28;20079;-79
2023/03/29 07:22:43;;;;;;;13.93;8.30;;;6.20;99.90;;;;;;5094524;28;20150;-80
2023/03/29 07:25:11;;;;;;;13.32;8.23;;;6.20;99.90;;;;;;5094259;28;20131;-80
2023/03/29 07:27:38;;;;;;;16.58;8.40;;;6.30;99.90;;;;;;5094297;28;20051;-80
2023/03/29 07:30:09;;;;;;;14.15;7.97;;;6.30;99.90;;;;;;5094351;28;20048;-79
2023/03/29 07:32:40;;;;;;;14.73;8.02;;;6.40;99.90;;;;;;5094275;28;20039;-78
2023/03/29 07:35:07;;;;;;;15.98;8.07;;;6.40;99.90;;;;;;5094246;28;20057;-77
2023/03/29 07:37:35;;;;;;;13.30;8.10;;;6.40;99.90;;;;;;5093750;28;20476;-79
2023/03/29 07:40:08;;;;;;;12.38;7.40;;;6.50;99.90;;;;;;5094151;28;20059;-80
2023/03/29 07:42:35;;;;;;;15.77;7.90;;;6.50;99.90;;;;;;5094368;28;20048;-79
2023/03/29 07:45:03;;;;;;;11.07;7.15;;;6.50;99.90;;;;;;5093871;28;20429;-80
2023/03/29 07:47:28;;;;;;;13.25;7.38;;;6.50;99.90;;;;;;5094455;28;20055;-77
2023/03/29 07:49:54;;;;;;;11.35;7.22;;;6.50;99.90;;;;;;5093782;28;20056;-78
2023/03/29 07:52:20;;;;;;;10.67;7.57;;;6.70;99.90;;;;;;5094040;28;20036;-79
2023/03/29 07:54:46;;;;;;;11.07;7.13;;;6.60;99.90;;;;;;5093913;28;20129;-79
2023/03/29 07:57:12;;;;;;;12.10;7.28;;;7.30;99.90;;;;;;5093765;28;20511;-78
2023/03/29 07:59:37;;;;;;;11.07;7.47;;;6.70;99.90;;;;;;5093795;28;20162;-79
2023/03/29 08:02:03;;;;;;;10.35;6.80;;;7.30;99.90;;;;;;5093792;28;20046;-79
2023/03/29 08:04:29;;;;;;;12.23;7.37;;;6.70;99.90;;;;;;5075670;28;20043;-78
2023/03/29 08:06:55;;;;;;;15.60;7.25;;;6.80;99.90;;;;;;5093759;28;20040;-76
2023/03/29 08:09:21;;;;;;;11.10;6.40;;;6.80;99.90;;;;;;5093585;28;20458;-78
2023/03/29 08:11:46;;;;;;;9.70;6.57;;;7.30;99.90;;;;;;5093675;28;20036;-78
2023/03/29 08:14:12;;;;;;;10.77;6.43;;;6.90;99.90;;;;;;5092513;28;20131;-78
2023/03/29 08:16:37;;;;;;;10.75;6.00;;;7.00;99.90;;;;;;5093644;28;20036;-78
2023/03/29 08:19:03;;;;;;;9.68;6.43;;;7.30;99.90;;;;;;5093560;28;20507;-81
2023/03/29 08:21:29;;;;;;;12.23;6.43;;;7.50;99.90;;;;;;5091675;28;20043;-80
2023/03/29 08:23:54;;;;;;;8.48;5.68;;;7.10;99.90;;;;;;5093229;28;20101;-79
2023/03/29 08:26:20;;;;;;;11.35;6.25;;;7.10;99.90;;;;;;5071140;28;20094;-79
2023/03/29 08:28:46;;;;;;;8.70;5.38;;;7.70;99.90;;;;;;5090205;28;20052;-79
2023/03/29 08:31:12;;;;;;;9.32;5.68;;;7.20;99.90;;;;;;5093484;28;20163;-80
2023/03/29 08:33:37;;;;;;;8.65;6.05;;;7.30;99.90;;;;;;5093231;28;20051;-78
2023/03/29 08:36:03;;;;;;;9.68;6.28;;;7.20;99.90;;;;;;5109064;28;20494;-81
2023/03/29 08:38:29;;;;;;;12.30;5.82;;;7.30;99.90;;;;;;5075333;28;20044;-78
2023/03/29 08:40:55;;;;;;;14.25;6.28;;;7.40;99.90;;;;;;5093023;28;20048;-80
2023/03/29 08:43:46;;;;;;;10.90;6.25;;;7.40;99.90;;;;;;5092844;28;20044;-79
2023/03/29 08:46:35;;;;;;;10.68;5.90;;;7.40;99.90;;;;;;5093271;28;20377;-77
2023/03/29 08:49:05;;;;;;;9.82;6.32;;;7.50;99.90;;;;;;5085014;28;20533;-80
2023/03/29 08:51:46;;;;;;;9.32;5.80;;;7.50;99.90;;;;;;5093106;28;20040;-80
2023/03/29 08:54:23;;;;;;;9.35;5.38;;;7.70;99.90;;;;;;5093218;28;20137;-78
2023/03/29 08:56:51;;;;;;;8.25;5.20;;;7.70;99.90;;;;;;5093133;28;20059;-80
2023/03/29 08:59:27;;;;;;;10.82;5.18;;;8.00;99.90;;;;;;5091969;28;20051;-78
2023/03/29 09:01:56;;;;;;;9.90;5.72;;;8.00;99.90;;;;;;5093199;28;20044;-78
2023/03/29 09:04:26;;;;;;;9.93;5.32;;;8.10;99.90;;;;;;5092768;28;20043;-78
2023/03/29 09:06:53;;;;;;;11.55;5.50;;;8.20;99.90;;;;;;5093020;28;20181;-78
2023/03/29 09:09:21;;;;;;;7.57;5.28;;;8.30;99.90;;;;;;5093096;28;20392;-80
2023/03/29 09:12:15;;;;;;;11.73;5.13;;;8.60;99.90;;;;;;5092728;28;20044;-79
2023/03/29 09:14:53;;;;;;;7.65;5.57;;;8.60;99.90;;;;;;5092761;28;20052;-79
2023/03/29 09:17:54;;;;;;;8.30;5.63;;;8.70;99.90;;;;;;5092921;28;20040;-80
2023/03/29 09:20:58;;;;;;;8.23;4.97;;;8.90;99.90;;;;;;5092522;28;20480;-78
2023/03/29 09:23:43;;;;;;;8.82;5.50;;;9.10;99.90;;;;;;5092576;28;20084;-78
2023/03/29 09:26:23;;;;;;;6.97;4.80;;;9.20;99.90;;;;;;5092827;28;20077;-78
2023/03/29 09:29:18;;;;;;;8.98;5.20;;;9.20;99.90;;;;;;5091371;28;20047;-77
2023/03/29 09:31:44;;;;;;;7.78;5.07;;;9.30;99.90;;;;;;5092847;28;20044;-79
2023/03/29 09:34:19;;;;;;;8.90;4.93;;;9.80;99.90;;;;;;5095203;28;20051;-81
2023/03/29 09:36:55;;;;;;;7.75;5.13;;;10.20;99.90;;;;;;5095186;28;20044;-78
2023/03/29 09:39:22;;;;;;;10.25;5.22;;;9.60;99.90;;;;;;5096249;28;20051;-76
2023/03/29 09:42:02;;;;;;;9.60;4.90;;;9.70;99.90;;;;;;5096028;28;20506;-77
2023/03/29 09:44:37;;;;;;;10.70;5.32;;;9.70;99.90;;;;;;5095395;28;20051;-78
2023/03/29 09:47:23;;;;;;;7.68;4.57;;;9.80;99.90;;;;;;5075928;28;20048;-78
2023/03/29 09:49:55;;;;;;;9.38;4.72;;;9.80;99.90;;;;;;5075545;28;20061;-79
2023/03/29 09:52:22;;;;;;;7.93;5.28;;;9.80;99.90;;;;;;5075641;28;20049;-79
2023/03/29 09:54:48;;;;;;;10.57;5.23;;;9.80;99.90;;;;;;5079827;28;20119;-77
2023/03/29 09:57:18;;;;;;;10.90;5.13;;;9.90;99.90;;;;;;5095759;28;20047;-77
2023/03/29 09:59:45;;;;;;;11.52;5.18;;;9.80;99.90;;;;;;5095458;28;20496;-77
2023/03/29 10:02:12;;;;;;;8.20;5.43;;;9.90;99.90;;;;;;5095820;28;20106;-78
2023/03/29 10:04:40;;;;;;;8.13;5.05;;;10.00;99.90;;;;;;5095838;28;20388;-78
2023/03/29 10:07:07;;;;;;;10.30;5.30;;;10.20;99.90;;;;;;5095757;28;20055;-78
2023/03/29 10:09:33;;;;;;;13.02;5.93;;;10.10;99.90;;;;;;5095634;28;20055;-79
2023/03/29 10:12:04;;;;;;;11.03;5.70;;;10.10;99.90;;;;;;5095676;28;20052;-78
2023/03/29 10:14:41;;;;;;;11.80;5.72;;;10.20;99.90;;;;;;5095972;28;20051;-76
2023/03/29 10:17:20;;;;;;;13.80;5.97;;;10.20;99.90;;;;;;5095262;28;20172;-79
2023/03/29 10:19:57;;;;;;;9.85;5.45;;;10.80;99.90;;;;;;5095020;28;20082;-78
2023/03/29 10:22:36;;;;;;;10.52;5.20;;;10.40;99.90;;;;;;5095520;28;20042;-79
2023/03/29 10:25:03;;;;;;;10.45;6.38;;;10.50;99.90;;;;;;5095722;28;20047;-77
2023/03/29 10:27:31;;;;;;;10.05;5.97;;;10.60;99.90;;;;;;5095433;28;20039;-78
2023/03/29 10:29:59;;;;;;;14.07;6.97;;;10.70;99.90;;;;;;5094860;28;20495;-76
2023/03/29 10:32:32;;;;;;;10.82;6.18;;;10.70;99.90;;;;;;5095322;28;20449;-83
2023/03/29 10:35:26;;;;;;;11.23;6.85;;;10.70;99.90;;;;;;5095308;28;20040;-80
2023/03/29 10:37:56;;;;;;;14.00;6.93;;;10.70;99.90;;;;;;5095207;28;20048;-83
2023/03/29 10:40:29;;;;;;;9.77;6.53;;;10.70;99.90;;;;;;5095415;28;20115;-78
2023/03/29 10:42:59;;;;;;;10.15;6.20;;;10.70;99.90;;;;;;5095270;28;20048;-78
2023/03/29 10:45:32;;;;;;;11.63;7.25;;;10.80;99.90;;;;;;5094136;28;20074;-80
2023/03/29 10:47:58;;;;;;;9.15;6.13;;;11.00;99.90;;;;;;5094737;28;20044;-80
2023/03/29 10:50:30;;;;;;;9.07;6.15;;;11.00;99.90;;;;;;5095051;28;20052;-80
2023/03/29 10:52:56;;;;;;;12.80;6.13;;;11.60;99.90;;;;;;5094809;28;20047;-78
2023/03/29 10:55:27;;;;;;;9.88;6.55;;;11.10;99.90;;;;;;5094807;28;20469;-78
2023/03/29 10:58:23;;;;;;;11.27;6.88;;;11.20;99.90;;;;;;5095269;28;20113;-78
2023/03/29 11:00:55;;;;;;;13.98;6.65;;;11.30;99.90;;;;;;5094580;28;20131;-77
2023/03/29 11:03:43;;;;;;;8.88;5.32;;;11.50;99.90;;;;;;5094182;28;20068;-78
2023/03/29 11:06:25;;;;;;;10.52;6.20;;;11.50;99.90;;;;;;5093265;28;20136;-81
2023/03/29 11:08:58;;;;;;;7.82;5.50;;;11.60;99.90;;;;;;5092767;28;20072;-77
2023/03/29 11:11:29;;;;;;;8.77;6.03;;;11.70;99.90;;;;;;5092719;28;20056;-78
2023/03/29 11:14:06;;;;;;;8.80;5.70;;;11.70;99.90;;;;;;5093698;28;20089;-79
2023/03/29 11:16:52;;;;;;;11.07;6.03;;;11.80;99.90;;;;;;5093464;28;20097;-77
2023/03/29 11:19:52;;;;;;;9.40;5.88;;;11.90;99.90;;;;;;5094040;28;20044;-80
2023/03/29 11:22:27;;;;;;;8.45;5.57;;;12.00;99.90;;;;;;5093340;28;20052;-85
2023/03/29 11:25:14;;;;;;;9.57;5.72;;;12.10;99.90;;;;;;5094646;28;20044;-81
2023/03/29 11:27:56;;;;;;;9.00;5.72;;;12.20;99.90;;;;;;5078047;28;20480;-80
2023/03/29 11:30:46;;;;;;;8.13;5.00;;;12.40;99.90;;;;;;5093415;28;20127;-82
2023/03/29 11:33:31;;;;;;;8.45;5.35;;;12.50;99.90;;;;;;5094895;28;20044;-80
2023/03/29 11:35:57;;;;;;;10.60;5.50;;;12.60;99.90;;;;;;5110207;28;20040;-82
2023/03/29 11:38:32;;;;;;;10.20;5.65;;;12.70;99.90;;;;;;5094126;28;20480;-81
2023/03/29 11:41:04;;;;;;;11.20;5.55;;;12.80;99.90;;;;;;5092670;28;20048;-79
2023/03/29 11:43:41;;;;;;;10.23;5.38;;;12.80;99.90;;;;;;5093948;28;20040;-79
2023/03/29 11:46:26;;;;;;;8.55;5.00;;;12.90;99.90;;;;;;5094039;28;20083;-80
2023/03/29 11:49:22;;;;;;;8.65;4.97;;;12.90;99.90;;;;;;5092563;28;20563;-78
2023/03/29 11:51:55;;;;;;;11.35;5.07;;;13.00;99.90;;;;;;5067393;28;20048;-78
2023/03/29 11:54:34;;;;;;;9.40;5.00;;;13.10;99.90;;;;;;5093850;28;20149;-77
2023/03/29 11:57:26;;;;;;;7.68;4.88;;;13.20;99.90;;;;;;5092843;28;20043;-78
2023/03/29 12:00:20;;;;;;;8.15;5.15;;;13.20;99.90;;;;;;5093238;28;20365;-79
2023/03/29 12:02:58;;;;;;;7.90;4.70;;;13.20;99.90;;;;;;5093637;28;20051;-78
2023/03/29 12:05:31;;;;;;;10.38;4.32;;;13.20;99.90;;;;;;5093728;28;20051;-78
2023/03/29 12:08:06;;;;;;;8.60;4.97;;;13.30;99.90;;;;;;5093551;28;20177;-78
2023/03/29 12:10:44;;;;;;;7.85;4.22;;;13.30;99.90;;;;;;5093446;28;20133;-78
2023/03/29 12:13:29;;;;;;;7.38;4.55;;;13.40;99.90;;;;;;5093489;28;20054;-78
2023/03/29 12:16:35;;;;;;;8.13;4.53;;;13.60;99.90;;;;;;5093626;28;20052;-79
2023/03/29 12:19:22;;;;;;;6.68;5.05;;;13.70;99.90;;;;;;5093263;28;20135;-77
2023/03/29 12:21:49;;;;;;;10.95;5.28;;;13.70;99.90;;;;;;5093245;28;20087;-78
2023/03/29 12:24:17;;;;;;;9.50;5.35;;;13.70;99.90;;;;;;5092183;28;20040;-79
2023/03/29 12:26:52;;;;;;;7.13;4.85;;;13.80;99.90;;;;;;5093415;28;20048;-78
2023/03/29 12:29:55;;;;;;;13.07;5.32;;;13.80;99.90;;;;;;5093153;28;20050;-78
2023/03/29 12:32:50;;;;;;;9.10;5.68;;;13.90;99.90;;;;;;5109175;28;20097;-78
2023/03/29 12:35:29;;;;;;;8.07;5.25;;;14.10;99.90;;;;;;5093020;28;20120;-78
2023/03/29 12:38:24;;;;;;;7.53;4.50;;;14.10;99.90;;;;;;5093203;28;20527;-81
2023/03/29 12:41:00;;;;;;;7.18;4.05;;;14.10;99.90;;;;;;5093621;28;20047;-78
2023/03/29 12:43:36;;;;;;;8.97;5.20;;;14.20;99.90;;;;;;5093072;28;20036;-78
2023/03/29 12:46:07;;;;;;;7.95;5.13;;;14.10;99.90;;;;;;5093230;28;20032;-77
2023/03/29 12:48:37;;;;;;;9.13;5.13;;;13.90;99.90;;;;;;5108629;28;20044;-78
2023/03/29 12:51:06;;;;;;;8.68;4.93;;;13.80;99.90;;;;;;5093064;28;20373;-78
2023/03/29 12:53:37;;;;;;;10.30;4.63;;;13.80;99.90;;;;;;5093206;28;20059;-78
2023/03/29 12:56:07;;;;;;;7.93;5.30;;;13.80;99.90;;;;;;5092999;28;20055;-78
2023/03/29 12:58:38;;;;;;;9.70;5.70;;;13.80;99.90;;;;;;5092841;28;20144;-78
2023/03/29 13:01:26;;;;;;;9.65;5.50;;;13.70;99.90;;;;;;5093158;28;20047;-78
2023/03/29 13:04:02;;;;;;;7.45;5.13;;;13.80;99.90;;;;;;5093087;28;20081;-78
2023/03/29 13:06:49;;;;;;;10.30;5.68;;;13.60;99.90;;;;;;5093272;28;20484;-77
2023/03/29 13:09:29;;;;;;;10.23;5.25;;;13.80;99.90;;;;;;5096921;28;20052;-78